Terminal Aerodrome Forecast
Issued by NWS Bismarck, ND

Home | Current Version | Previous Version | Graphics & Text | Print | Product List | Glossary On
Versions: 1 2 3 4 5 6 7 8 9 10 11 12 13 14 15 16 17 18
743
FTUS43 KBIS 061729
TAFBIS
TAF
KBIS 061729Z 0618/0718 26012KT P6SM BKN080 WS020/29040KT
     FM062200 27021G30KT P6SM BKN150
     FM070800 30027G37KT P6SM BKN035
     FM071500 32033G44KT P6SM OVC020=

USA.gov is the U.S. government's official web portal to all federal, state and local government web resources and services.